Terminal Aerodrome Forecast
Issued by NWS Wilmington, OH

Current Version | Previous Version | Graphics & Text | Print | Product List | Glossary On
Versions: 1 2 3 4 5 6 7 8 9 10 11 12 13 14
000
FTUS41 KILN 200500
TAFCMH
TAF
KCMH 200520Z 2006/2106 00000KT P6SM OVC018
      TEMPO 2009/2013 5SM BR
     FM201700 VRB02KT P6SM OVC025=

USA.gov is the U.S. government's official web portal to all federal, state and local government web resources and services.